sensor_id;sensor_type;location;lat;lon;timestamp;pressure;altitude;pressure_sealevel;temperature
79495;BMP180;68951;53.130;18.104;2023-07-30T00:00:35;100222.60;;;
79495;BMP180;68951;53.130;18.104;2023-07-30T00:03:22;100220.00;;;
79495;BMP180;68951;53.130;18.104;2023-07-30T00:05:55;100222.20;;;
79495;BMP180;68951;53.130;18.104;2023-07-30T00:08:23;100228.40;;;
79495;BMP180;68951;53.130;18.104;2023-07-30T00:10:50;100234.40;;;
79495;BMP180;68951;53.130;18.104;2023-07-30T00:13:16;100237.20;;;
79495;BMP180;68951;53.130;18.104;2023-07-30T00:15:46;100238.60;;;
79495;BMP180;68951;53.130;18.104;2023-07-30T00:18:14;100239.80;;;
79495;BMP180;68951;53.130;18.104;2023-07-30T00:20:41;100240.60;;;
79495;BMP180;68951;53.130;18.104;2023-07-30T00:23:09;100241.20;;;
79495;BMP180;68951;53.130;18.104;2023-07-30T00:25:35;100240.60;;;
79495;BMP180;68951;53.130;18.104;2023-07-30T00:28:02;100240.00;;;
79495;BMP180;68951;53.130;18.104;2023-07-30T00:30:29;100245.60;;;
79495;BMP180;68951;53.130;18.104;2023-07-30T00:32:56;100246.80;;;
79495;BMP180;68951;53.130;18.104;2023-07-30T00:35:23;100252.40;;;
79495;BMP180;68951;53.130;18.104;2023-07-30T00:37:49;100254.60;;;
79495;BMP180;68951;53.130;18.104;2023-07-30T00:40:17;100257.00;;;
79495;BMP180;68951;53.130;18.104;2023-07-30T00:42:44;100253.60;;;
79495;BMP180;68951;53.130;18.104;2023-07-30T00:45:11;100251.20;;;
79495;BMP180;68951;53.130;18.104;2023-07-30T00:47:38;100258.60;;;
79495;BMP180;68951;53.130;18.104;2023-07-30T00:50:07;100256.40;;;
79495;BMP180;68951;53.130;18.104;2023-07-30T00:52:35;100260.80;;;
79495;BMP180;68951;53.130;18.104;2023-07-30T00:55:03;100258.80;;;
79495;BMP180;68951;53.130;18.104;2023-07-30T00:57:30;100266.20;;;
79495;BMP180;68951;53.130;18.104;2023-07-30T00:59:58;100269.40;;;
79495;BMP180;68951;53.130;18.104;2023-07-30T01:02:25;100275.80;;;
79495;BMP180;68951;53.130;18.104;2023-07-30T01:04:53;100270.20;;;
79495;BMP180;68951;53.130;18.104;2023-07-30T01:07:20;100270.20;;;
79495;BMP180;68951;53.130;18.104;2023-07-30T01:09:47;100272.20;;;
79495;BMP180;68951;53.130;18.104;2023-07-30T01:12:14;100270.60;;;
79495;BMP180;68951;53.130;18.104;2023-07-30T01:14:41;100266.60;;;
79495;BMP180;68951;53.130;18.104;2023-07-30T01:17:09;100267.00;;;
79495;BMP180;68951;53.130;18.104;2023-07-30T01:19:36;100260.80;;;
79495;BMP180;68951;53.130;18.104;2023-07-30T01:22:03;100262.40;;;
79495;BMP180;68951;53.130;18.104;2023-07-30T01:24:30;100269.60;;;
79495;BMP180;68951;53.130;18.104;2023-07-30T01:27:03;100271.80;;;
79495;BMP180;68951;53.130;18.104;2023-07-30T01:29:52;100267.60;;;
79495;BMP180;68951;53.130;18.104;2023-07-30T01:32:26;100270.00;;;
79495;BMP180;68951;53.130;18.104;2023-07-30T01:34:56;100267.20;;;
79495;BMP180;68951;53.130;18.104;2023-07-30T01:37:24;100264.40;;;
79495;BMP180;68951;53.130;18.104;2023-07-30T01:39:53;100264.80;;;
79495;BMP180;68951;53.130;18.104;2023-07-30T01:42:19;100266.80;;;
79495;BMP180;68951;53.130;18.104;2023-07-30T01:44:46;100262.80;;;
79495;BMP180;68951;53.130;18.104;2023-07-30T01:47:13;100263.20;;;
79495;BMP180;68951;53.130;18.104;2023-07-30T01:49:40;100263.00;;;
79495;BMP180;68951;53.130;18.104;2023-07-30T01:52:07;100262.60;;;
79495;BMP180;68951;53.130;18.104;2023-07-30T01:54:33;100264.80;;;
79495;BMP180;68951;53.130;18.104;2023-07-30T01:57:00;100261.20;;;
79495;BMP180;68951;53.130;18.104;2023-07-30T01:59:27;100260.40;;;
79495;BMP180;68951;53.130;18.104;2023-07-30T02:01:54;100259.60;;;
79495;BMP180;68951;53.130;18.104;2023-07-30T02:04:21;100266.00;;;
79495;BMP180;68951;53.130;18.104;2023-07-30T02:06:48;100264.40;;;
79495;BMP180;68951;53.130;18.104;2023-07-30T02:09:15;100264.80;;;
79495;BMP180;68951;53.130;18.104;2023-07-30T02:11:42;100263.80;;;
79495;BMP180;68951;53.130;18.104;2023-07-30T02:14:09;100260.60;;;
79495;BMP180;68951;53.130;18.104;2023-07-30T02:16:37;100270.20;;;
79495;BMP180;68951;53.130;18.104;2023-07-30T02:19:04;100276.00;;;
79495;BMP180;68951;53.130;18.104;2023-07-30T02:21:30;100277.80;;;
79495;BMP180;68951;53.130;18.104;2023-07-30T02:23:59;100276.20;;;
79495;BMP180;68951;53.130;18.104;2023-07-30T02:26:26;100279.00;;;
79495;BMP180;68951;53.130;18.104;2023-07-30T02:28:53;100286.00;;;
79495;BMP180;68951;53.130;18.104;2023-07-30T02:31:20;100290.60;;;
79495;BMP180;68951;53.130;18.104;2023-07-30T02:33:47;100292.00;;;
79495;BMP180;68951;53.130;18.104;2023-07-30T02:36:14;100290.40;;;
79495;BMP180;68951;53.130;18.104;2023-07-30T02:38:41;100287.40;;;
79495;BMP180;68951;53.130;18.104;2023-07-30T02:41:07;100284.80;;;
79495;BMP180;68951;53.130;18.104;2023-07-30T02:43:34;100284.00;;;
79495;BMP180;68951;53.130;18.104;2023-07-30T02:46:01;100286.60;;;
79495;BMP180;68951;53.130;18.104;2023-07-30T02:48:28;100288.00;;;
79495;BMP180;68951;53.130;18.104;2023-07-30T02:50:54;100286.60;;;
79495;BMP180;68951;53.130;18.104;2023-07-30T02:53:21;100288.80;;;
79495;BMP180;68951;53.130;18.104;2023-07-30T02:55:48;100288.40;;;
79495;BMP180;68951;53.130;18.104;2023-07-30T02:58:15;100299.20;;;
79495;BMP180;68951;53.130;18.104;2023-07-30T03:00:42;100304.40;;;
79495;BMP180;68951;53.130;18.104;2023-07-30T03:03:09;100296.20;;;
79495;BMP180;68951;53.130;18.104;2023-07-30T03:05:36;100296.80;;;
79495;BMP180;68951;53.130;18.104;2023-07-30T03:08:03;100294.00;;;
79495;BMP180;68951;53.130;18.104;2023-07-30T03:10:30;100287.00;;;
79495;BMP180;68951;53.130;18.104;2023-07-30T03:12:56;100285.00;;;
79495;BMP180;68951;53.130;18.104;2023-07-30T03:15:23;100296.20;;;
79495;BMP180;68951;53.130;18.104;2023-07-30T03:17:50;100290.40;;;
79495;BMP180;68951;53.130;18.104;2023-07-30T03:20:17;100289.80;;;
79495;BMP180;68951;53.130;18.104;2023-07-30T03:22:43;100293.60;;;
79495;BMP180;68951;53.130;18.104;2023-07-30T03:25:10;100286.60;;;
79495;BMP180;68951;53.130;18.104;2023-07-30T03:27:37;100286.20;;;
79495;BMP180;68951;53.130;18.104;2023-07-30T03:30:05;100283.00;;;
79495;BMP180;68951;53.130;18.104;2023-07-30T03:32:31;100286.20;;;
79495;BMP180;68951;53.130;18.104;2023-07-30T03:34:58;100293.20;;;
79495;BMP180;68951;53.130;18.104;2023-07-30T03:37:25;100296.80;;;
79495;BMP180;68951;53.130;18.104;2023-07-30T03:39:52;100299.60;;;
79495;BMP180;68951;53.130;18.104;2023-07-30T03:42:19;100297.80;;;
79495;BMP180;68951;53.130;18.104;2023-07-30T03:44:46;100292.20;;;
79495;BMP180;68951;53.130;18.104;2023-07-30T03:47:13;100292.80;;;
79495;BMP180;68951;53.130;18.104;2023-07-30T03:49:39;100289.00;;;
79495;BMP180;68951;53.130;18.104;2023-07-30T03:52:06;100288.60;;;
79495;BMP180;68951;53.130;18.104;2023-07-30T03:54:33;100288.60;;;
79495;BMP180;68951;53.130;18.104;2023-07-30T03:57:00;100289.00;;;
79495;BMP180;68951;53.130;18.104;2023-07-30T03:59:27;100288.20;;;
79495;BMP180;68951;53.130;18.104;2023-07-30T04:01:55;100289.20;;;
79495;BMP180;68951;53.130;18.104;2023-07-30T04:04:22;100290.40;;;
79495;BMP180;68951;53.130;18.104;2023-07-30T04:06:48;100303.20;;;
79495;BMP180;68951;53.130;18.104;2023-07-30T04:09:15;100310.00;;;
79495;BMP180;68951;53.130;18.104;2023-07-30T04:11:42;100314.60;;;
79495;BMP180;68951;53.130;18.104;2023-07-30T04:14:09;100313.20;;;
79495;BMP180;68951;53.130;18.104;2023-07-30T04:16:36;100307.00;;;
79495;BMP180;68951;53.130;18.104;2023-07-30T04:19:02;100302.00;;;
79495;BMP180;68951;53.130;18.104;2023-07-30T04:21:29;100305.40;;;
79495;BMP180;68951;53.130;18.104;2023-07-30T04:23:56;100303.80;;;
79495;BMP180;68951;53.130;18.104;2023-07-30T04:26:23;100311.00;;;
79495;BMP180;68951;53.130;18.104;2023-07-30T04:28:50;100314.60;;;
79495;BMP180;68951;53.130;18.104;2023-07-30T04:31:16;100316.00;;;
79495;BMP180;68951;53.130;18.104;2023-07-30T04:33:43;100317.60;;;
79495;BMP180;68951;53.130;18.104;2023-07-30T04:36:10;100323.20;;;
79495;BMP180;68951;53.130;18.104;2023-07-30T04:38:37;100329.80;;;
79495;BMP180;68951;53.130;18.104;2023-07-30T04:41:03;100331.60;;;
79495;BMP180;68951;53.130;18.104;2023-07-30T04:43:31;100335.20;;;
79495;BMP180;68951;53.130;18.104;2023-07-30T04:45:57;100334.60;;;
79495;BMP180;68951;53.130;18.104;2023-07-30T04:48:24;100338.60;;;
79495;BMP180;68951;53.130;18.104;2023-07-30T04:50:51;100340.40;;;
79495;BMP180;68951;53.130;18.104;2023-07-30T04:53:18;100340.60;;;
79495;BMP180;68951;53.130;18.104;2023-07-30T04:55:47;100343.00;;;
79495;BMP180;68951;53.130;18.104;2023-07-30T04:58:13;100344.40;;;
79495;BMP180;68951;53.130;18.104;2023-07-30T05:00:40;100343.00;;;
79495;BMP180;68951;53.130;18.104;2023-07-30T05:03:07;100343.20;;;
79495;BMP180;68951;53.130;18.104;2023-07-30T05:05:34;100348.80;;;
79495;BMP180;68951;53.130;18.104;2023-07-30T05:08:00;100349.60;;;
79495;BMP180;68951;53.130;18.104;2023-07-30T05:10:27;100351.20;;;
79495;BMP180;68951;53.130;18.104;2023-07-30T05:12:54;100348.00;;;
79495;BMP180;68951;53.130;18.104;2023-07-30T05:15:21;100350.80;;;
79495;BMP180;68951;53.130;18.104;2023-07-30T05:17:47;100344.40;;;
79495;BMP180;68951;53.130;18.104;2023-07-30T05:20:14;100341.60;;;
79495;BMP180;68951;53.130;18.104;2023-07-30T05:22:41;100342.60;;;
79495;BMP180;68951;53.130;18.104;2023-07-30T05:25:08;100349.00;;;
79495;BMP180;68951;53.130;18.104;2023-07-30T05:27:36;100356.60;;;
79495;BMP180;68951;53.130;18.104;2023-07-30T05:30:03;100351.20;;;
79495;BMP180;68951;53.130;18.104;2023-07-30T05:32:30;100355.00;;;
79495;BMP180;68951;53.130;18.104;2023-07-30T05:34:57;100355.00;;;
79495;BMP180;68951;53.130;18.104;2023-07-30T05:37:24;100365.20;;;
79495;BMP180;68951;53.130;18.104;2023-07-30T05:39:51;100365.00;;;
79495;BMP180;68951;53.130;18.104;2023-07-30T05:42:17;100364.80;;;
79495;BMP180;68951;53.130;18.104;2023-07-30T05:44:44;100364.00;;;
79495;BMP180;68951;53.130;18.104;2023-07-30T05:47:11;100365.80;;;
79495;BMP180;68951;53.130;18.104;2023-07-30T05:49:38;100366.40;;;
79495;BMP180;68951;53.130;18.104;2023-07-30T05:52:05;100371.40;;;
79495;BMP180;68951;53.130;18.104;2023-07-30T05:54:32;100368.00;;;
79495;BMP180;68951;53.130;18.104;2023-07-30T05:56:58;100367.20;;;
79495;BMP180;68951;53.130;18.104;2023-07-30T05:59:25;100368.00;;;
79495;BMP180;68951;53.130;18.104;2023-07-30T06:01:52;100372.80;;;
79495;BMP180;68951;53.130;18.104;2023-07-30T06:04:19;100373.80;;;
79495;BMP180;68951;53.130;18.104;2023-07-30T06:06:45;100376.00;;;
79495;BMP180;68951;53.130;18.104;2023-07-30T06:09:12;100378.00;;;
79495;BMP180;68951;53.130;18.104;2023-07-30T06:11:39;100378.00;;;
79495;BMP180;68951;53.130;18.104;2023-07-30T06:14:06;100380.20;;;
79495;BMP180;68951;53.130;18.104;2023-07-30T06:16:33;100382.80;;;
79495;BMP180;68951;53.130;18.104;2023-07-30T06:18:59;100379.20;;;
79495;BMP180;68951;53.130;18.104;2023-07-30T06:21:26;100380.20;;;
79495;BMP180;68951;53.130;18.104;2023-07-30T06:23:54;100384.40;;;
79495;BMP180;68951;53.130;18.104;2023-07-30T06:26:21;100386.20;;;
79495;BMP180;68951;53.130;18.104;2023-07-30T06:28:47;100392.40;;;
79495;BMP180;68951;53.130;18.104;2023-07-30T06:31:14;100393.80;;;
79495;BMP180;68951;53.130;18.104;2023-07-30T06:33:41;100396.20;;;
79495;BMP180;68951;53.130;18.104;2023-07-30T06:36:08;100390.00;;;
79495;BMP180;68951;53.130;18.104;2023-07-30T06:38:34;100387.60;;;
79495;BMP180;68951;53.130;18.104;2023-07-30T06:41:01;100382.40;;;
79495;BMP180;68951;53.130;18.104;2023-07-30T06:43:28;100382.80;;;
79495;BMP180;68951;53.130;18.104;2023-07-30T06:45:55;100382.80;;;
79495;BMP180;68951;53.130;18.104;2023-07-30T06:48:22;100383.40;;;
79495;BMP180;68951;53.130;18.104;2023-07-30T06:50:48;100385.60;;;
79495;BMP180;68951;53.130;18.104;2023-07-30T06:53:15;100388.00;;;
79495;BMP180;68951;53.130;18.104;2023-07-30T06:55:42;100385.60;;;
79495;BMP180;68951;53.130;18.104;2023-07-30T06:58:10;100385.00;;;
79495;BMP180;68951;53.130;18.104;2023-07-30T07:00:37;100381.80;;;
79495;BMP180;68951;53.130;18.104;2023-07-30T07:03:04;100384.40;;;
79495;BMP180;68951;53.130;18.104;2023-07-30T07:05:31;100389.00;;;
79495;BMP180;68951;53.130;18.104;2023-07-30T07:07:59;100389.20;;;
79495;BMP180;68951;53.130;18.104;2023-07-30T07:10:26;100391.80;;;
79495;BMP180;68951;53.130;18.104;2023-07-30T07:12:53;100388.60;;;
79495;BMP180;68951;53.130;18.104;2023-07-30T07:15:19;100384.60;;;
79495;BMP180;68951;53.130;18.104;2023-07-30T07:17:46;100383.80;;;
79495;BMP180;68951;53.130;18.104;2023-07-30T07:20:13;100378.40;;;
79495;BMP180;68951;53.130;18.104;2023-07-30T07:22:41;100385.40;;;
79495;BMP180;68951;53.130;18.104;2023-07-30T07:25:08;100382.60;;;
79495;BMP180;68951;53.130;18.104;2023-07-30T07:27:35;100388.20;;;
79495;BMP180;68951;53.130;18.104;2023-07-30T07:30:02;100385.60;;;
79495;BMP180;68951;53.130;18.104;2023-07-30T07:32:29;100382.20;;;
79495;BMP180;68951;53.130;18.104;2023-07-30T07:34:56;100390.40;;;
79495;BMP180;68951;53.130;18.104;2023-07-30T07:37:23;100390.40;;;
79495;BMP180;68951;53.130;18.104;2023-07-30T07:39:49;100391.40;;;
79495;BMP180;68951;53.130;18.104;2023-07-30T07:42:16;100391.00;;;
79495;BMP180;68951;53.130;18.104;2023-07-30T07:44:43;100394.40;;;
79495;BMP180;68951;53.130;18.104;2023-07-30T07:47:12;100398.80;;;
79495;BMP180;68951;53.130;18.104;2023-07-30T07:49:39;100392.40;;;
79495;BMP180;68951;53.130;18.104;2023-07-30T07:52:07;100396.60;;;
79495;BMP180;68951;53.130;18.104;2023-07-30T07:54:34;100398.40;;;
79495;BMP180;68951;53.130;18.104;2023-07-30T07:57:01;100402.40;;;
79495;BMP180;68951;53.130;18.104;2023-07-30T07:59:28;100395.40;;;
79495;BMP180;68951;53.130;18.104;2023-07-30T08:01:55;100393.60;;;
79495;BMP180;68951;53.130;18.104;2023-07-30T08:04:21;100400.00;;;
79495;BMP180;68951;53.130;18.104;2023-07-30T08:06:48;100401.80;;;
79495;BMP180;68951;53.130;18.104;2023-07-30T08:09:15;100399.40;;;
79495;BMP180;68951;53.130;18.104;2023-07-30T08:11:42;100404.40;;;
79495;BMP180;68951;53.130;18.104;2023-07-30T08:14:09;100402.80;;;
79495;BMP180;68951;53.130;18.104;2023-07-30T08:16:36;100408.80;;;
79495;BMP180;68951;53.130;18.104;2023-07-30T08:19:03;100414.40;;;
79495;BMP180;68951;53.130;18.104;2023-07-30T08:21:30;100420.40;;;
79495;BMP180;68951;53.130;18.104;2023-07-30T08:23:57;100418.00;;;
79495;BMP180;68951;53.130;18.104;2023-07-30T08:26:24;100412.80;;;
79495;BMP180;68951;53.130;18.104;2023-07-30T08:28:51;100417.20;;;
79495;BMP180;68951;53.130;18.104;2023-07-30T08:31:18;100422.40;;;
79495;BMP180;68951;53.130;18.104;2023-07-30T08:33:44;100419.60;;;
79495;BMP180;68951;53.130;18.104;2023-07-30T08:36:12;100428.80;;;
79495;BMP180;68951;53.130;18.104;2023-07-30T08:38:38;100435.00;;;
79495;BMP180;68951;53.130;18.104;2023-07-30T08:41:05;100433.20;;;
79495;BMP180;68951;53.130;18.104;2023-07-30T08:43:32;100431.80;;;
79495;BMP180;68951;53.130;18.104;2023-07-30T08:46:00;100432.60;;;
79495;BMP180;68951;53.130;18.104;2023-07-30T08:48:27;100436.40;;;
79495;BMP180;68951;53.130;18.104;2023-07-30T08:50:57;100440.80;;;
79495;BMP180;68951;53.130;18.104;2023-07-30T08:53:25;100444.60;;;
79495;BMP180;68951;53.130;18.104;2023-07-30T08:55:54;100444.20;;;
79495;BMP180;68951;53.130;18.104;2023-07-30T08:58:25;100440.00;;;
79495;BMP180;68951;53.130;18.104;2023-07-30T09:00:55;100437.80;;;
79495;BMP180;68951;53.130;18.104;2023-07-30T09:03:27;100441.60;;;
79495;BMP180;68951;53.130;18.104;2023-07-30T09:05:54;100436.60;;;
79495;BMP180;68951;53.130;18.104;2023-07-30T09:08:22;100431.80;;;
79495;BMP180;68951;53.130;18.104;2023-07-30T09:10:49;100435.60;;;
79495;BMP180;68951;53.130;18.104;2023-07-30T09:13:22;100435.00;;;
79495;BMP180;68951;53.130;18.104;2023-07-30T09:15:52;100432.40;;;
79495;BMP180;68951;53.130;18.104;2023-07-30T09:18:19;100441.80;;;
79495;BMP180;68951;53.130;18.104;2023-07-30T09:20:46;100442.40;;;
79495;BMP180;68951;53.130;18.104;2023-07-30T09:23:13;100452.20;;;
79495;BMP180;68951;53.130;18.104;2023-07-30T09:25:41;100456.60;;;
79495;BMP180;68951;53.130;18.104;2023-07-30T09:28:10;100454.60;;;
79495;BMP180;68951;53.130;18.104;2023-07-30T09:30:37;100456.80;;;
79495;BMP180;68951;53.130;18.104;2023-07-30T09:33:04;100451.00;;;
79495;BMP180;68951;53.130;18.104;2023-07-30T09:35:33;100452.00;;;
79495;BMP180;68951;53.130;18.104;2023-07-30T09:38:03;100460.80;;;
79495;BMP180;68951;53.130;18.104;2023-07-30T09:40:40;100458.80;;;
79495;BMP180;68951;53.130;18.104;2023-07-30T09:43:08;100452.20;;;
79495;BMP180;68951;53.130;18.104;2023-07-30T09:45:36;100454.60;;;
79495;BMP180;68951;53.130;18.104;2023-07-30T09:48:05;100465.40;;;
79495;BMP180;68951;53.130;18.104;2023-07-30T09:50:37;100462.60;;;
79495;BMP180;68951;53.130;18.104;2023-07-30T09:53:04;100461.80;;;
79495;BMP180;68951;53.130;18.104;2023-07-30T09:55:31;100460.80;;;
79495;BMP180;68951;53.130;18.104;2023-07-30T09:57:58;100461.00;;;
79495;BMP180;68951;53.130;18.104;2023-07-30T10:00:29;100457.00;;;
79495;BMP180;68951;53.130;18.104;2023-07-30T10:02:58;100463.80;;;
79495;BMP180;68951;53.130;18.104;2023-07-30T10:05:32;100463.60;;;
79495;BMP180;68951;53.130;18.104;2023-07-30T10:08:15;100464.20;;;
79495;BMP180;68951;53.130;18.104;2023-07-30T10:10:44;100450.60;;;
79495;BMP180;68951;53.130;18.104;2023-07-30T10:13:12;100453.00;;;
79495;BMP180;68951;53.130;18.104;2023-07-30T10:15:40;100449.00;;;
79495;BMP180;68951;53.130;18.104;2023-07-30T10:18:08;100455.00;;;
79495;BMP180;68951;53.130;18.104;2023-07-30T10:20:36;100456.80;;;
79495;BMP180;68951;53.130;18.104;2023-07-30T10:23:05;100456.20;;;
79495;BMP180;68951;53.130;18.104;2023-07-30T10:25:43;100456.00;;;
79495;BMP180;68951;53.130;18.104;2023-07-30T10:31:04;100462.00;;;
79495;BMP180;68951;53.130;18.104;2023-07-30T10:33:52;100464.80;;;
79495;BMP180;68951;53.130;18.104;2023-07-30T10:36:37;100455.60;;;
79495;BMP180;68951;53.130;18.104;2023-07-30T10:39:26;100452.80;;;
79495;BMP180;68951;53.130;18.104;2023-07-30T10:41:58;100455.40;;;
79495;BMP180;68951;53.130;18.104;2023-07-30T10:44:34;100461.20;;;
79495;BMP180;68951;53.130;18.104;2023-07-30T10:47:03;100465.00;;;
79495;BMP180;68951;53.130;18.104;2023-07-30T10:49:37;100465.40;;;
79495;BMP180;68951;53.130;18.104;2023-07-30T10:52:07;100470.20;;;
79495;BMP180;68951;53.130;18.104;2023-07-30T10:54:34;100465.60;;;
79495;BMP180;68951;53.130;18.104;2023-07-30T10:57:07;100465.60;;;
79495;BMP180;68951;53.130;18.104;2023-07-30T10:59:36;100461.60;;;
79495;BMP180;68951;53.130;18.104;2023-07-30T11:02:06;100457.00;;;
79495;BMP180;68951;53.130;18.104;2023-07-30T11:04:37;100459.40;;;
79495;BMP180;68951;53.130;18.104;2023-07-30T11:07:04;100465.40;;;
79495;BMP180;68951;53.130;18.104;2023-07-30T11:09:31;100462.00;;;
79495;BMP180;68951;53.130;18.104;2023-07-30T11:11:59;100456.00;;;
79495;BMP180;68951;53.130;18.104;2023-07-30T11:14:29;100466.00;;;
79495;BMP180;68951;53.130;18.104;2023-07-30T11:17:00;100465.20;;;
79495;BMP180;68951;53.130;18.104;2023-07-30T11:19:28;100452.60;;;
79495;BMP180;68951;53.130;18.104;2023-07-30T11:21:57;100454.60;;;
79495;BMP180;68951;53.130;18.104;2023-07-30T11:24:37;100458.00;;;
79495;BMP180;68951;53.130;18.104;2023-07-30T11:27:06;100449.80;;;
79495;BMP180;68951;53.130;18.104;2023-07-30T11:29:34;100439.80;;;
79495;BMP180;68951;53.130;18.104;2023-07-30T11:32:02;100441.00;;;
79495;BMP180;68951;53.130;18.104;2023-07-30T11:34:30;100445.40;;;
79495;BMP180;68951;53.130;18.104;2023-07-30T11:37:00;100447.40;;;
79495;BMP180;68951;53.130;18.104;2023-07-30T11:39:29;100443.80;;;
79495;BMP180;68951;53.130;18.104;2023-07-30T11:41:56;100440.20;;;
79495;BMP180;68951;53.130;18.104;2023-07-30T11:44:36;100440.20;;;
79495;BMP180;68951;53.130;18.104;2023-07-30T11:47:07;100444.20;;;
79495;BMP180;68951;53.130;18.104;2023-07-30T11:49:40;100444.80;;;
79495;BMP180;68951;53.130;18.104;2023-07-30T11:52:08;100447.00;;;
79495;BMP180;68951;53.130;18.104;2023-07-30T11:54:36;100436.40;;;
79495;BMP180;68951;53.130;18.104;2023-07-30T11:57:03;100440.20;;;
79495;BMP180;68951;53.130;18.104;2023-07-30T11:59:31;100439.00;;;
79495;BMP180;68951;53.130;18.104;2023-07-30T12:01:59;100443.80;;;
79495;BMP180;68951;53.130;18.104;2023-07-30T12:04:42;100442.00;;;
79495;BMP180;68951;53.130;18.104;2023-07-30T12:07:10;100435.60;;;
79495;BMP180;68951;53.130;18.104;2023-07-30T12:09:37;100428.00;;;
79495;BMP180;68951;53.130;18.104;2023-07-30T12:12:06;100430.40;;;
79495;BMP180;68951;53.130;18.104;2023-07-30T12:17:16;100421.40;;;
79495;BMP180;68951;53.130;18.104;2023-07-30T12:19:46;100425.80;;;
79495;BMP180;68951;53.130;18.104;2023-07-30T12:22:15;100416.20;;;
79495;BMP180;68951;53.130;18.104;2023-07-30T12:24:42;100416.60;;;
79495;BMP180;68951;53.130;18.104;2023-07-30T12:27:09;100412.80;;;
79495;BMP180;68951;53.130;18.104;2023-07-30T12:29:37;100418.00;;;
79495;BMP180;68951;53.130;18.104;2023-07-30T12:32:07;100414.20;;;
79495;BMP180;68951;53.130;18.104;2023-07-30T12:34:34;100408.00;;;
79495;BMP180;68951;53.130;18.104;2023-07-30T12:37:03;100406.20;;;
79495;BMP180;68951;53.130;18.104;2023-07-30T12:39:33;100406.20;;;
79495;BMP180;68951;53.130;18.104;2023-07-30T12:42:00;100409.20;;;
79495;BMP180;68951;53.130;18.104;2023-07-30T12:44:26;100411.60;;;
79495;BMP180;68951;53.130;18.104;2023-07-30T12:46:53;100399.40;;;
79495;BMP180;68951;53.130;18.104;2023-07-30T12:49:20;100402.80;;;
79495;BMP180;68951;53.130;18.104;2023-07-30T12:51:47;100400.40;;;
79495;BMP180;68951;53.130;18.104;2023-07-30T12:54:17;100395.60;;;
79495;BMP180;68951;53.130;18.104;2023-07-30T12:56:44;100402.80;;;
79495;BMP180;68951;53.130;18.104;2023-07-30T12:59:12;100395.60;;;
79495;BMP180;68951;53.130;18.104;2023-07-30T13:01:39;100392.80;;;
79495;BMP180;68951;53.130;18.104;2023-07-30T13:04:06;100401.00;;;
79495;BMP180;68951;53.130;18.104;2023-07-30T13:06:37;100394.20;;;
79495;BMP180;68951;53.130;18.104;2023-07-30T13:09:06;100398.60;;;
79495;BMP180;68951;53.130;18.104;2023-07-30T13:11:33;100392.60;;;
79495;BMP180;68951;53.130;18.104;2023-07-30T13:14:03;100393.60;;;
79495;BMP180;68951;53.130;18.104;2023-07-30T13:16:31;100391.00;;;
79495;BMP180;68951;53.130;18.104;2023-07-30T13:19:02;100385.80;;;
79495;BMP180;68951;53.130;18.104;2023-07-30T13:21:29;100385.40;;;
79495;BMP180;68951;53.130;18.104;2023-07-30T13:23:58;100381.60;;;
79495;BMP180;68951;53.130;18.104;2023-07-30T13:26:26;100382.40;;;
79495;BMP180;68951;53.130;18.104;2023-07-30T13:28:53;100377.60;;;
79495;BMP180;68951;53.130;18.104;2023-07-30T13:31:20;100372.60;;;
79495;BMP180;68951;53.130;18.104;2023-07-30T13:33:46;100369.40;;;
79495;BMP180;68951;53.130;18.104;2023-07-30T13:36:17;100381.00;;;
79495;BMP180;68951;53.130;18.104;2023-07-30T13:38:45;100383.80;;;
79495;BMP180;68951;53.130;18.104;2023-07-30T13:41:11;100375.60;;;
79495;BMP180;68951;53.130;18.104;2023-07-30T13:43:38;100366.20;;;
79495;BMP180;68951;53.130;18.104;2023-07-30T13:46:05;100366.00;;;
79495;BMP180;68951;53.130;18.104;2023-07-30T13:48:32;100368.20;;;
79495;BMP180;68951;53.130;18.104;2023-07-30T13:50:59;100362.80;;;
79495;BMP180;68951;53.130;18.104;2023-07-30T13:53:26;100351.40;;;
79495;BMP180;68951;53.130;18.104;2023-07-30T13:55:53;100357.00;;;
79495;BMP180;68951;53.130;18.104;2023-07-30T13:58:20;100347.20;;;
79495;BMP180;68951;53.130;18.104;2023-07-30T14:00:47;100357.00;;;
79495;BMP180;68951;53.130;18.104;2023-07-30T14:03:13;100354.00;;;
79495;BMP180;68951;53.130;18.104;2023-07-30T14:05:41;100355.40;;;
79495;BMP180;68951;53.130;18.104;2023-07-30T14:08:09;100351.80;;;
79495;BMP180;68951;53.130;18.104;2023-07-30T14:10:35;100355.00;;;
79495;BMP180;68951;53.130;18.104;2023-07-30T14:13:03;100352.60;;;
79495;BMP180;68951;53.130;18.104;2023-07-30T14:15:31;100352.80;;;
79495;BMP180;68951;53.130;18.104;2023-07-30T14:17:58;100353.20;;;
79495;BMP180;68951;53.130;18.104;2023-07-30T14:20:25;100353.80;;;
79495;BMP180;68951;53.130;18.104;2023-07-30T14:22:52;100350.40;;;
79495;BMP180;68951;53.130;18.104;2023-07-30T14:25:21;100344.00;;;
79495;BMP180;68951;53.130;18.104;2023-07-30T14:27:49;100344.00;;;
79495;BMP180;68951;53.130;18.104;2023-07-30T14:30:16;100347.00;;;
79495;BMP180;68951;53.130;18.104;2023-07-30T14:32:44;100340.00;;;
79495;BMP180;68951;53.130;18.104;2023-07-30T14:35:11;100340.60;;;
79495;BMP180;68951;53.130;18.104;2023-07-30T14:37:38;100338.20;;;
79495;BMP180;68951;53.130;18.104;2023-07-30T14:40:05;100344.40;;;
79495;BMP180;68951;53.130;18.104;2023-07-30T14:42:32;100333.40;;;
79495;BMP180;68951;53.130;18.104;2023-07-30T14:44:59;100334.20;;;
79495;BMP180;68951;53.130;18.104;2023-07-30T14:47:26;100334.40;;;
79495;BMP180;68951;53.130;18.104;2023-07-30T14:49:53;100328.80;;;
79495;BMP180;68951;53.130;18.104;2023-07-30T14:52:20;100330.40;;;
79495;BMP180;68951;53.130;18.104;2023-07-30T14:54:46;100319.60;;;
79495;BMP180;68951;53.130;18.104;2023-07-30T14:57:14;100323.00;;;